Time;durP1;ratioP1;P1;durP2;ratioP2;P2;SDS_P1;SDS_P2;PMS_P1;PMS_P2;Temp;Humidity;BMP_temperature;BMP_pressure;BME280_temperature;BME280_humidity;BME280_pressure;Samples;Min_cycle;Max_cycle;Signal;HPM_P1;HPM_P2
2022/09/15 00:01:19;;;;;;;;;;;;;;;18.95;60.19;100404.97;5043616;28;19921;-83
2022/09/15 00:03:49;;;;;;;;;;;;;;;19.02;60.31;100399.47;5031213;28;19924;-83
2022/09/15 00:06:14;;;;;;;;;;;;;;;19.06;59.94;100397.13;5059196;28;19935;-83
2022/09/15 00:08:40;;;;;;;;;;;;;;;18.91;60.16;100403.75;5061312;28;19951;-83
2022/09/15 00:11:16;;;;;;;;;;;;;;;18.99;59.98;100399.94;5032630;28;19999;-83
2022/09/15 00:13:42;;;;;;;;;;;;;;;18.92;60.57;100393.69;5029329;28;19917;-84
2022/09/15 00:16:07;;;;;;;;;;;;;;;18.90;60.81;100387.63;5017436;28;20004;-83
2022/09/15 00:18:33;;;;;;;;;;;;;;;18.92;60.46;100410.88;5050701;28;20003;-82
2022/09/15 00:21:03;;;;;;;;;;;;;;;18.92;60.54;100410.88;5045716;28;19917;-84
2022/09/15 00:23:29;;;;;;;;;;;;;;;18.91;60.03;100411.09;5048720;28;19920;-83
2022/09/15 00:25:55;;;;;;;;;;;;;;;18.73;59.76;100404.50;5030301;28;19963;-83
2022/09/15 00:28:21;;;;;;;;;;;;;;;18.72;59.91;100405.53;5029721;28;19983;-83
2022/09/15 00:30:47;;;;;;;;;;;;;;;18.72;60.24;100410.16;5013055;28;19959;-84
2022/09/15 00:33:13;;;;;;;;;;;;;;;18.63;60.95;100401.41;5035472;28;20334;-83
2022/09/15 00:35:40;;;;;;;;;;;;;;;18.70;60.53;100396.75;5043827;28;20407;-83
2022/09/15 00:38:06;;;;;;;;;;;;;;;18.73;60.00;100393.59;5052316;28;19963;-84
2022/09/15 00:40:32;;;;;;;;;;;;;;;18.81;60.38;100399.88;5040112;28;19917;-83
2022/09/15 00:43:00;;;;;;;;;;;;;;;18.85;60.40;100398.38;5055035;28;19920;-83
2022/09/15 00:45:26;;;;;;;;;;;;;;;18.84;60.85;100396.69;5057971;28;19916;-83
2022/09/15 00:47:51;;;;;;;;;;;;;;;18.85;61.16;100392.94;5057057;28;19917;-83
2022/09/15 00:50:17;;;;;;;;;;;;;;;18.70;61.70;100396.75;5017191;28;19920;-82
2022/09/15 00:52:48;;;;;;;;;;;;;;;18.56;62.36;100385.13;5035820;28;19952;-83
2022/09/15 00:55:19;;;;;;;;;;;;;;;18.54;62.41;100392.69;5050884;28;20574;-83
2022/09/15 00:57:46;;;;;;;;;;;;;;;18.43;62.71;100389.84;5045263;28;20011;-83
2022/09/15 01:00:14;;;;;;;;;;;;;;;18.46;62.84;100383.94;5030300;28;19929;-83
2022/09/15 01:02:41;;;;;;;;;;;;;;;18.22;64.17;100383.69;5043636;28;19917;-83
2022/09/15 01:05:08;;;;;;;;;;;;;;;18.28;63.96;100377.34;5051313;28;19919;-84
2022/09/15 01:07:33;;;;;;;;;;;;;;;18.19;64.36;100370.53;5029561;28;19923;-82
2022/09/15 01:09:59;;;;;;;;;;;;;;;18.22;64.34;100359.19;5050965;28;20312;-83
2022/09/15 01:12:26;;;;;;;;;;;;;;;18.22;63.97;100356.47;5025856;28;20178;-83
2022/09/15 01:14:51;;;;;;;;;;;;;;;18.18;63.67;100359.84;5013955;28;20361;-83
2022/09/15 01:17:23;;;;;;;;;;;;;;;18.11;63.57;100355.25;5030996;28;19925;-83
2022/09/15 01:19:54;;;;;;;;;;;;;;;18.09;63.75;100361.97;5031507;28;19917;-83
2022/09/15 01:22:35;;;;;;;;;;;;;;;18.13;63.40;100349.63;5048867;28;19912;-82
2022/09/15 01:25:21;;;;;;;;;;;;;;;18.13;63.49;100347.72;5020331;28;20277;-84
2022/09/15 01:28:05;;;;;;;;;;;;;;;18.16;63.14;100349.16;5050468;28;20043;-84
2022/09/15 01:30:50;;;;;;;;;;;;;;;18.13;63.21;100344.16;5054727;28;19916;-83
2022/09/15 01:33:16;;;;;;;;;;;;;;;18.09;63.24;100351.91;5054334;28;19981;-83
2022/09/15 01:35:54;;;;;;;;;;;;;;;18.11;63.29;100341.66;5061301;28;20399;-84
2022/09/15 01:38:22;;;;;;;;;;;;;;;18.21;62.66;100337.63;5058055;28;19994;-82
2022/09/15 01:40:52;;;;;;;;;;;;;;;18.22;62.14;100337.44;5054633;28;19912;-84
2022/09/15 01:43:18;;;;;;;;;;;;;;;18.19;62.14;100342.47;5051850;28;19920;-83
2022/09/15 01:45:44;;;;;;;;;;;;;;;18.23;62.06;100339.06;5033055;28;19917;-84
2022/09/15 01:48:10;;;;;;;;;;;;;;;18.19;61.89;100335.16;5031516;28;19913;-83
2022/09/15 01:50:42;;;;;;;;;;;;;;;18.24;62.28;100332.59;5046621;28;20018;-83
2022/09/15 01:53:11;;;;;;;;;;;;;;;18.21;62.38;100333.00;5012642;28;19939;-84
2022/09/15 01:55:48;;;;;;;;;;;;;;;18.19;62.21;100332.44;5026737;28;19978;-83
2022/09/15 01:58:15;;;;;;;;;;;;;;;18.27;61.98;100325.88;5048940;28;21769;-83
2022/09/15 02:00:43;;;;;;;;;;;;;;;18.18;62.12;100330.75;5031807;28;19917;-83
2022/09/15 02:03:32;;;;;;;;;;;;;;;18.23;61.85;100330.09;5058172;28;19921;-83
2022/09/15 02:06:01;;;;;;;;;;;;;;;18.32;60.89;100329.59;5053408;28;19921;-83
2022/09/15 02:09:02;;;;;;;;;;;;;;;18.33;59.36;100330.44;5015132;28;19917;-83
2022/09/15 02:11:29;;;;;;;;;;;;;;;18.41;59.45;100327.44;4979803;28;19919;-84
2022/09/15 02:14:12;;;;;;;;;;;;;;;18.38;59.37;100321.59;5040861;28;19916;-85
2022/09/15 02:16:40;;;;;;;;;;;;;;;18.41;58.70;100310.28;5048243;28;19939;-84
2022/09/15 02:19:15;;;;;;;;;;;;;;;18.48;59.22;100316.53;5046032;28;19917;-84
2022/09/15 02:21:44;;;;;;;;;;;;;;;18.54;58.56;100305.59;5027102;28;19923;-83
2022/09/15 02:24:22;;;;;;;;;;;;;;;18.53;58.76;100306.63;5023770;28;19945;-84
2022/09/15 02:26:47;;;;;;;;;;;;;;;18.54;58.20;100304.72;5010398;28;20349;-84
2022/09/15 02:29:13;;;;;;;;;;;;;;;18.47;56.23;100306.66;5027560;28;20024;-84
2022/09/15 02:31:38;;;;;;;;;;;;;;;18.50;56.79;100315.25;5026651;28;19947;-84
2022/09/15 02:34:30;;;;;;;;;;;;;;;18.58;57.59;100305.97;5027452;28;20300;-84
2022/09/15 02:36:55;;;;;;;;;;;;;;;18.61;56.45;100316.38;5043365;28;20007;-84
2022/09/15 02:39:23;;;;;;;;;;;;;;;18.69;57.14;100307.13;5031648;28;20011;-84
2022/09/15 02:41:49;;;;;;;;;;;;;;;18.65;56.96;100317.63;5028898;28;19913;-83
2022/09/15 02:44:15;;;;;;;;;;;;;;;18.70;57.82;100319.69;5027124;28;19924;-83
2022/09/15 02:46:41;;;;;;;;;;;;;;;18.60;56.68;100322.91;5010883;28;20052;-83
2022/09/15 02:49:08;;;;;;;;;;;;;;;18.60;56.48;100314.75;5050033;28;19939;-84
2022/09/15 02:51:34;;;;;;;;;;;;;;;18.56;56.94;100316.22;5029222;28;20427;-84
2022/09/15 02:54:01;;;;;;;;;;;;;;;18.61;56.81;100316.38;5046336;28;19912;-83
2022/09/15 02:56:26;;;;;;;;;;;;;;;18.64;56.94;100318.69;5024143;28;20471;-84
2022/09/15 02:58:52;;;;;;;;;;;;;;;18.68;56.43;100316.34;5035258;28;19963;-84
2022/09/15 03:01:18;;;;;;;;;;;;;;;18.62;56.32;100323.53;5026825;28;19917;-83
2022/09/15 03:03:43;;;;;;;;;;;;;;;18.62;56.17;100323.53;5026295;28;19917;-83
2022/09/15 03:06:19;;;;;;;;;;;;;;;18.66;56.91;100324.75;5027481;28;19919;-84
2022/09/15 03:08:49;;;;;;;;;;;;;;;18.70;56.85;100312.34;5040856;28;19921;-82
2022/09/15 03:11:16;;;;;;;;;;;;;;;18.63;57.52;100319.72;5040349;28;19916;-83
2022/09/15 03:13:43;;;;;;;;;;;;;;;18.67;55.45;100326.41;5048557;28;19912;-84
2022/09/15 03:16:10;;;;;;;;;;;;;;;18.59;54.60;100329.41;5028483;28;19921;-84
2022/09/15 03:18:40;;;;;;;;;;;;;;;18.51;54.20;100329.69;5013322;28;20400;-84
2022/09/15 03:21:09;;;;;;;;;;;;;;;18.56;53.34;100325.22;5049119;28;19925;-84
2022/09/15 03:23:36;;;;;;;;;;;;;;;18.62;52.98;100328.13;5039179;28;19917;-84
2022/09/15 03:26:01;;;;;;;;;;;;;;;18.69;52.33;100326.19;5050345;28;19920;-84
2022/09/15 03:28:31;;;;;;;;;;;;;;;18.75;52.35;100331.59;5014294;28;20438;-84
2022/09/15 03:31:00;;;;;;;;;;;;;;;18.85;51.92;100335.72;5044998;28;19966;-83
2022/09/15 03:33:27;;;;;;;;;;;;;;;18.94;52.38;100328.91;5047647;28;19921;-83
2022/09/15 03:35:52;;;;;;;;;;;;;;;18.95;53.84;100322.44;5015031;28;19967;-84
2022/09/15 03:38:17;;;;;;;;;;;;;;;18.98;54.61;100327.41;5052736;28;19916;-83
2022/09/15 03:40:43;;;;;;;;;;;;;;;18.94;55.00;100331.63;5029995;28;19974;-83
2022/09/15 03:43:09;;;;;;;;;;;;;;;18.82;54.97;100333.44;5031803;28;19921;-83
2022/09/15 03:45:37;;;;;;;;;;;;;;;18.69;55.03;100339.81;5014102;28;19960;-82
2022/09/15 03:48:06;;;;;;;;;;;;;;;18.67;55.48;100336.47;5032896;28;20330;-85
2022/09/15 03:50:51;;;;;;;;;;;;;;;18.62;54.84;100336.31;5052269;28;19966;-83
2022/09/15 03:53:16;;;;;;;;;;;;;;;18.61;55.33;100327.28;5049752;28;20420;-84
2022/09/15 03:55:44;;;;;;;;;;;;;;;18.58;55.31;100326.91;5050321;28;19999;-83
2022/09/15 03:58:11;;;;;;;;;;;;;;;18.52;55.30;100329.47;5053175;28;19965;-84
2022/09/15 04:00:36;;;;;;;;;;;;;;;18.58;55.13;100333.19;5052943;28;19913;-82
2022/09/15 04:03:02;;;;;;;;;;;;;;;18.50;55.19;100330.75;5031011;28;19927;-83
2022/09/15 04:05:31;;;;;;;;;;;;;;;18.60;54.92;100325.63;5031865;28;19921;-83
2022/09/15 04:07:56;;;;;;;;;;;;;;;18.67;53.75;100322.84;5051529;28;19970;-85
2022/09/15 04:10:23;;;;;;;;;;;;;;;18.72;53.45;100326.56;5035034;28;19999;-83
2022/09/15 04:12:53;;;;;;;;;;;;;;;18.83;52.53;100318.78;5028898;28;20407;-83
2022/09/15 04:15:19;;;;;;;;;;;;;;;18.88;52.23;100319.75;5033133;28;19978;-81
2022/09/15 04:17:45;;;;;;;;;;;;;;;18.99;52.07;100320.94;5051214;28;19925;-83
2022/09/15 04:20:11;;;;;;;;;;;;;;;19.08;51.61;100316.84;5049219;28;19920;-83
2022/09/15 04:22:37;;;;;;;;;;;;;;;19.05;50.98;100314.56;5051099;28;19917;-83
2022/09/15 04:25:03;;;;;;;;;;;;;;;19.15;50.35;100312.16;5045457;28;19916;-83
2022/09/15 04:27:33;;;;;;;;;;;;;;;19.32;50.29;100311.56;5048411;28;20004;-83
2022/09/15 04:30:00;;;;;;;;;;;;;;;19.44;50.07;100304.28;5048846;28;19927;-83
2022/09/15 04:32:27;;;;;;;;;;;;;;;19.53;49.78;100308.38;5044983;28;19928;-83
2022/09/15 04:34:52;;;;;;;;;;;;;;;19.63;49.83;100309.72;5047468;28;20305;-83
2022/09/15 04:37:18;;;;;;;;;;;;;;;19.63;49.26;100312.47;5050482;28;19916;-82
2022/09/15 04:39:45;;;;;;;;;;;;;;;19.69;49.23;100317.00;5052334;28;19921;-83
2022/09/15 04:42:11;;;;;;;;;;;;;;;19.76;48.97;100317.75;5023871;28;19916;-84
2022/09/15 04:44:37;;;;;;;;;;;;;;;19.74;48.77;100314.44;5051344;28;20408;-82
2022/09/15 04:47:02;;;;;;;;;;;;;;;19.81;48.74;100315.19;5045135;28;19924;-83
2022/09/15 04:49:28;;;;;;;;;;;;;;;20.00;48.56;100322.25;5071052;28;19917;-83
2022/09/15 04:51:54;;;;;;;;;;;;;;;19.91;48.97;100326.38;5053974;28;20014;-84
2022/09/15 04:54:22;;;;;;;;;;;;;;;20.03;48.67;100329.97;5015998;28;19951;-83
2022/09/15 04:56:48;;;;;;;;;;;;;;;20.09;48.40;100324.66;5056690;28;19939;-83
2022/09/15 04:59:17;;;;;;;;;;;;;;;20.15;48.05;100321.00;5052516;28;20008;-83
2022/09/15 05:01:45;;;;;;;;;;;;;;;20.13;48.44;100323.97;5050870;28;20372;-84
2022/09/15 05:04:11;;;;;;;;;;;;;;;20.39;47.76;100322.75;5045112;28;19956;-85
2022/09/15 05:06:36;;;;;;;;;;;;;;;20.52;47.41;100326.34;5046723;28;19923;-83
2022/09/15 05:09:02;;;;;;;;;;;;;;;20.56;47.46;100328.41;5022640;28;19917;-85
2022/09/15 05:11:29;;;;;;;;;;;;;;;20.60;47.19;100323.28;5016356;28;19924;-86
2022/09/15 05:13:56;;;;;;;;;;;;;;;20.65;46.96;100326.16;5022943;28;19951;-84
2022/09/15 05:16:30;;;;;;;;;;;;;;;20.74;46.32;100330.19;5035453;28;19921;-84
2022/09/15 05:19:01;;;;;;;;;;;;;;;20.96;45.68;100335.91;5009863;28;19920;-83
2022/09/15 05:21:28;;;;;;;;;;;;;;;21.06;45.00;100335.31;5036911;28;21629;-84
2022/09/15 05:23:53;;;;;;;;;;;;;;;21.23;44.61;100338.16;5020077;28;19917;-83
2022/09/15 05:26:21;;;;;;;;;;;;;;;21.45;43.74;100341.13;5025090;28;20226;-86
2022/09/15 05:28:46;;;;;;;;;;;;;;;22.13;42.25;100344.97;5031637;28;20336;-84
2022/09/15 05:31:13;;;;;;;;;;;;;;;22.80;41.20;100336.00;5046563;28;19924;-84
2022/09/15 05:33:39;;;;;;;;;;;;;;;23.53;39.24;100338.72;5024357;28;19928;-83
2022/09/15 05:36:04;;;;;;;;;;;;;;;24.11;37.96;100339.16;5024049;28;19917;-83
2022/09/15 05:38:31;;;;;;;;;;;;;;;24.69;36.55;100333.97;5032370;28;19995;-83
2022/09/15 05:41:06;;;;;;;;;;;;;;;25.10;36.24;100334.25;5010239;28;19920;-83
2022/09/15 05:43:33;;;;;;;;;;;;;;;25.49;35.14;100332.03;5044474;28;20004;-84
2022/09/15 05:45:59;;;;;;;;;;;;;;;25.95;34.21;100334.16;5043386;28;20139;-82
2022/09/15 05:48:24;;;;;;;;;;;;;;;26.28;33.33;100325.41;5013586;28;20032;-82
2022/09/15 05:50:50;;;;;;;;;;;;;;;26.63;32.27;100329.31;5052301;28;20308;-81
2022/09/15 05:53:18;;;;;;;;;;;;;;;26.75;32.22;100326.28;5046064;28;19913;-83
2022/09/15 05:55:43;;;;;;;;;;;;;;;26.94;31.79;100326.53;5044698;28;19921;-84
2022/09/15 05:58:10;;;;;;;;;;;;;;;27.35;31.09;100324.56;5050535;28;19912;-86
2022/09/15 06:00:37;;;;;;;;;;;;;;;27.54;30.36;100318.41;5054506;28;19921;-88
2022/09/15 06:03:03;;;;;;;;;;;;;;;27.51;30.86;100321.72;5055285;28;19913;-87
2022/09/15 06:05:29;;;;;;;;;;;;;;;27.56;30.75;100325.31;5032351;28;20460;-87
2022/09/15 06:07:55;;;;;;;;;;;;;;;27.62;30.51;100328.84;5048722;28;19917;-86
2022/09/15 06:10:23;;;;;;;;;;;;;;;27.68;30.42;100326.91;5031239;28;19921;-84
2022/09/15 06:12:53;;;;;;;;;;;;;;;27.93;30.33;100329.59;5053008;28;19917;-89
2022/09/15 06:15:20;;;;;;;;;;;;;;;28.09;30.66;100322.00;5058449;28;19935;-89
2022/09/15 06:17:49;;;;;;;;;;;;;;;28.36;30.33;100324.31;5032300;28;19925;-88
2022/09/15 06:20:15;;;;;;;;;;;;;;;28.28;30.27;100319.38;5049187;28;19921;-82
2022/09/15 06:22:40;;;;;;;;;;;;;;;28.35;29.63;100322.69;5043716;28;19978;-84
2022/09/15 06:25:09;;;;;;;;;;;;;;;28.75;28.93;100317.97;5034242;28;19927;-84
2022/09/15 06:27:35;;;;;;;;;;;;;;;28.85;28.67;100317.03;5046550;28;19912;-82
2022/09/15 06:30:01;;;;;;;;;;;;;;;29.10;29.12;100310.44;5050008;28;20364;-82
2022/09/15 06:32:29;;;;;;;;;;;;;;;29.28;28.59;100316.34;5033368;28;19921;-83
2022/09/15 06:34:56;;;;;;;;;;;;;;;29.36;28.63;100312.91;5033756;28;19940;-82
2022/09/15 06:37:22;;;;;;;;;;;;;;;29.53;27.46;100316.03;5025855;28;20012;-82
2022/09/15 06:39:49;;;;;;;;;;;;;;;29.61;27.07;100314.53;5048161;28;20004;-83
2022/09/15 06:42:15;;;;;;;;;;;;;;;29.57;26.51;100317.09;5032398;28;20300;-82
2022/09/15 06:44:40;;;;;;;;;;;;;;;29.88;26.23;100319.50;5045617;28;19924;-82
2022/09/15 06:47:06;;;;;;;;;;;;;;;30.17;25.81;100310.19;5044876;28;19959;-87
2022/09/15 06:49:32;;;;;;;;;;;;;;;30.50;25.68;100317.44;5022772;28;19917;-82
2022/09/15 06:52:04;;;;;;;;;;;;;;;30.65;25.09;100312.78;5048837;28;19913;-83
2022/09/15 06:54:32;;;;;;;;;;;;;;;30.60;25.32;100318.41;5034025;28;19974;-83
2022/09/15 06:56:57;;;;;;;;;;;;;;;30.44;25.23;100318.69;5031327;28;19913;-83
2022/09/15 06:59:23;;;;;;;;;;;;;;;30.82;25.36;100315.81;5031282;28;19928;-82
2022/09/15 07:01:53;;;;;;;;;;;;;;;31.01;24.67;100317.72;5029102;28;19916;-83
2022/09/15 07:04:20;;;;;;;;;;;;;;;31.20;24.07;100312.09;5032459;28;19912;-87
2022/09/15 07:06:47;;;;;;;;;;;;;;;31.57;24.60;100313.84;5046388;28;19920;-82
2022/09/15 07:09:18;;;;;;;;;;;;;;;31.67;24.12;100308.06;5023010;28;20063;-83
2022/09/15 07:11:44;;;;;;;;;;;;;;;31.97;23.99;100305.78;5030753;28;19925;-84
2022/09/15 07:14:09;;;;;;;;;;;;;;;32.23;22.98;100294.06;5035256;28;19917;-85
2022/09/15 07:16:38;;;;;;;;;;;;;;;32.44;22.58;100286.84;5032498;28;20465;-82
2022/09/15 07:19:04;;;;;;;;;;;;;;;32.83;22.01;100282.53;5004968;28;19917;-83
2022/09/15 07:21:30;;;;;;;;;;;;;;;33.45;21.83;100278.03;5033386;28;19967;-82
2022/09/15 07:23:57;;;;;;;;;;;;;;;33.89;21.27;100277.00;5016360;28;20004;-82
2022/09/15 07:26:23;;;;;;;;;;;;;;;33.96;21.00;100271.75;5054168;28;19901;-81
2022/09/15 07:28:50;;;;;;;;;;;;;;;33.84;21.34;100266.00;5047290;28;19949;-83
2022/09/15 07:31:17;;;;;;;;;;;;;;;34.24;20.50;100263.06;5011591;28;20379;-83
2022/09/15 07:33:46;;;;;;;;;;;;;;;34.61;20.45;100269.13;5016317;28;20029;-81
2022/09/15 07:36:12;;;;;;;;;;;;;;;35.32;20.74;100276.09;4998997;28;20392;-83
2022/09/15 07:38:38;;;;;;;;;;;;;;;35.70;20.80;100273.25;5036013;28;19921;-83
2022/09/15 07:41:04;;;;;;;;;;;;;;;35.98;20.38;100275.50;5028960;28;19920;-84
2022/09/15 07:43:30;;;;;;;;;;;;;;;36.56;20.26;100273.66;5031222;28;19956;-84
2022/09/15 07:45:58;;;;;;;;;;;;;;;36.42;20.24;100273.16;5002178;28;20396;-83
2022/09/15 07:48:24;;;;;;;;;;;;;;;37.20;19.68;100274.28;5018986;28;19960;-83
2022/09/15 07:50:50;;;;;;;;;;;;;;;37.12;19.21;100262.03;5029343;28;19963;-84
2022/09/15 07:53:16;;;;;;;;;;;;;;;37.32;19.34;100272.28;5017985;28;19916;-83
2022/09/15 07:55:42;;;;;;;;;;;;;;;37.74;18.63;100272.00;5013143;28;19929;-83
2022/09/15 07:58:07;;;;;;;;;;;;;;;37.42;18.65;100264.56;5037412;28;19975;-82
2022/09/15 08:00:32;;;;;;;;;;;;;;;38.28;17.92;100267.19;5008039;28;19920;-84
2022/09/15 08:02:58;;;;;;;;;;;;;;;38.63;16.50;100267.38;5035497;28;19917;-83
2022/09/15 08:05:27;;;;;;;;;;;;;;;39.18;16.03;100259.97;5032694;28;20381;-85
2022/09/15 08:07:56;;;;;;;;;;;;;;;39.53;15.75;100264.84;5026938;28;19965;-83
2022/09/15 08:10:23;;;;;;;;;;;;;;;40.81;14.73;100265.88;5048693;28;19999;-85
2022/09/15 08:12:51;;;;;;;;;;;;;;;40.89;14.59;100255.53;5030789;28;19994;-84
2022/09/15 08:15:17;;;;;;;;;;;;;;;41.39;14.06;100255.53;5050628;28;19991;-83
2022/09/15 08:17:43;;;;;;;;;;;;;;;42.45;13.66;100261.00;5026605;28;20601;-86
2022/09/15 08:20:10;;;;;;;;;;;;;;;42.82;12.83;100257.31;5049402;28;19919;-83
2022/09/15 08:22:39;;;;;;;;;;;;;;;41.62;14.11;100259.13;5049363;28;20007;-85
2022/09/15 08:25:05;;;;;;;;;;;;;;;42.31;13.73;100255.13;5023682;28;19948;-85
2022/09/15 08:27:30;;;;;;;;;;;;;;;43.02;13.40;100248.59;5028548;28;20062;-82
2022/09/15 08:29:55;;;;;;;;;;;;;;;42.81;13.34;100247.22;5043996;28;19928;-83
2022/09/15 08:32:22;;;;;;;;;;;;;;;43.16;13.35;100238.19;5046529;28;19979;-84
2022/09/15 08:34:49;;;;;;;;;;;;;;;44.01;12.52;100237.09;5016911;28;19920;-85
2022/09/15 08:37:15;;;;;;;;;;;;;;;42.70;13.25;100237.81;5016280;28;19921;-82
2022/09/15 08:39:41;;;;;;;;;;;;;;;43.12;13.52;100242.22;5024788;28;19923;-85
2022/09/15 08:42:14;;;;;;;;;;;;;;;44.18;12.39;100246.84;5051021;28;20355;-84
2022/09/15 08:44:43;;;;;;;;;;;;;;;44.62;12.38;100239.28;5016613;28;19917;-81
2022/09/15 08:47:18;;;;;;;;;;;;;;;44.35;12.22;100245.28;5027343;28;19917;-81
2022/09/15 08:49:52;;;;;;;;;;;;;;;45.73;11.61;100236.34;5040588;28;19943;-79
2022/09/15 08:52:30;;;;;;;;;;;;;;;45.66;11.66;100236.34;5028701;28;20300;-82
2022/09/15 08:54:56;;;;;;;;;;;;;;;46.89;10.68;100238.09;5034549;28;20465;-81
2022/09/15 08:57:23;;;;;;;;;;;;;;;46.25;11.11;100227.97;5032631;28;20018;-80
2022/09/15 08:59:50;;;;;;;;;;;;;;;47.30;10.56;100227.94;5052224;28;19970;-81
2022/09/15 09:02:35;;;;;;;;;;;;;;;47.12;10.62;100223.28;5034477;28;19928;-81
2022/09/15 09:05:06;;;;;;;;;;;;;;;48.27;9.93;100226.78;5047260;28;19912;-81
2022/09/15 09:07:43;;;;;;;;;;;;;;;48.48;9.64;100215.03;5053066;28;19924;-80
2022/09/15 09:10:31;;;;;;;;;;;;;;;49.58;9.63;100213.50;5051253;28;19927;-81
2022/09/15 09:12:57;;;;;;;;;;;;;;;50.76;8.45;100213.66;5034081;28;19921;-80
2022/09/15 09:15:40;;;;;;;;;;;;;;;51.15;8.61;100208.19;5052450;28;19924;-81
2022/09/15 09:18:19;;;;;;;;;;;;;;;49.50;8.92;100194.91;5048582;28;19920;-79
2022/09/15 09:21:03;;;;;;;;;;;;;;;50.18;8.69;100190.56;5034447;28;19920;-81
2022/09/15 09:23:30;;;;;;;;;;;;;;;48.95;9.22;100197.97;5048248;28;19916;-81
2022/09/15 09:25:56;;;;;;;;;;;;;;;47.63;9.45;100194.25;5048004;28;19974;-81
2022/09/15 09:28:33;;;;;;;;;;;;;;;47.66;9.70;100196.25;5033415;28;19920;-81
2022/09/15 09:31:07;;;;;;;;;;;;;;;47.89;9.65;100187.81;5052581;28;20015;-80
2022/09/15 09:33:56;;;;;;;;;;;;;;;48.36;9.24;100190.81;5035612;28;19931;-81
2022/09/15 09:36:23;;;;;;;;;;;;;;;48.68;9.15;100186.66;5033947;28;19924;-80
2022/09/15 09:38:52;;;;;;;;;;;;;;;47.09;10.15;100178.56;5046886;28;20025;-81
2022/09/15 09:41:57;;;;;;;;;;;;;;;48.25;9.66;100192.22;5050923;28;19952;-80
2022/09/15 09:44:15;;;;;;;;;;;;;;;47.14;9.97;100185.88;5045593;28;19927;-81
2022/09/15 09:46:41;;;;;;;;;;;;;;;47.17;10.07;100189.91;5033769;28;19917;-79
2022/09/15 09:49:25;;;;;;;;;;;;;;;46.90;10.24;100182.84;5034754;28;20335;-80
2022/09/15 09:52:02;;;;;;;;;;;;;;;48.07;9.62;100181.06;5051628;28;20399;-80
2022/09/15 09:54:30;;;;;;;;;;;;;;;46.79;10.10;100187.81;5034809;28;20372;-81
2022/09/15 09:56:56;;;;;;;;;;;;;;;47.02;10.36;100178.66;5050744;28;19952;-81
2022/09/15 09:59:34;;;;;;;;;;;;;;;46.31;10.55;100172.31;5032821;28;19924;-80
2022/09/15 10:02:12;;;;;;;;;;;;;;;46.27;10.91;100180.06;5048471;28;20380;-80
2022/09/15 10:04:38;;;;;;;;;;;;;;;46.30;10.86;100172.75;5051231;28;20011;-80
2022/09/15 10:07:04;;;;;;;;;;;;;;;46.65;10.42;100174.50;5057218;28;19963;-83
2022/09/15 10:09:32;;;;;;;;;;;;;;;46.41;10.39;100167.00;5071083;28;19931;-79
2022/09/15 10:12:00;;;;;;;;;;;;;;;47.31;10.21;100162.09;5033757;28;20380;-81
2022/09/15 10:14:49;;;;;;;;;;;;;;;47.28;9.99;100170.69;5052629;28;19913;-81
2022/09/15 10:17:24;;;;;;;;;;;;;;;45.99;10.88;100168.88;5035850;28;19982;-82
2022/09/15 10:19:58;;;;;;;;;;;;;;;47.24;10.17;100155.69;5034252;28;20000;-83
2022/09/15 10:22:25;;;;;;;;;;;;;;;46.72;10.25;100159.41;5034503;28;19928;-83
2022/09/15 10:24:52;;;;;;;;;;;;;;;46.33;10.75;100163.38;5034266;28;19959;-83
2022/09/15 10:27:33;;;;;;;;;;;;;;;46.37;10.47;100152.81;5017554;28;20364;-83
2022/09/15 10:30:14;;;;;;;;;;;;;;;46.35;10.79;100152.44;5033900;28;19917;-83
2022/09/15 10:32:40;;;;;;;;;;;;;;;46.77;10.58;100155.34;5051543;28;19912;-82
2022/09/15 10:35:17;;;;;;;;;;;;;;;46.78;10.46;100162.63;5046443;28;19958;-83
2022/09/15 10:38:01;;;;;;;;;;;;;;;45.95;10.98;100156.72;5032189;28;19970;-83
2022/09/15 10:40:42;;;;;;;;;;;;;;;47.22;10.15;100158.13;5033515;28;19912;-83
2022/09/15 10:43:10;;;;;;;;;;;;;;;46.27;10.79;100153.66;5034085;28;19920;-84
2022/09/15 10:45:39;;;;;;;;;;;;;;;45.83;10.80;100138.94;5051533;28;19920;-84
2022/09/15 10:48:09;;;;;;;;;;;;;;;46.24;10.89;100140.31;5032712;28;19944;-84
2022/09/15 10:50:53;;;;;;;;;;;;;;;46.66;10.34;100133.47;5050918;28;19912;-83
2022/09/15 10:53:40;;;;;;;;;;;;;;;46.61;10.63;100135.97;5052454;28;19916;-83
2022/09/15 10:56:35;;;;;;;;;;;;;;;45.92;11.23;100119.41;5040520;28;19919;-82
2022/09/15 10:59:16;;;;;;;;;;;;;;;45.81;11.29;100118.66;5049006;28;19917;-83
2022/09/15 11:02:01;;;;;;;;;;;;;;;45.29;11.61;100127.81;5031683;28;20031;-83
2022/09/15 11:04:30;;;;;;;;;;;;;;;44.84;12.00;100126.69;5049399;28;19970;-83
2022/09/15 11:07:11;;;;;;;;;;;;;;;44.43;12.16;100124.31;5043878;28;19952;-83
2022/09/15 11:09:44;;;;;;;;;;;;;;;45.25;11.39;100109.19;5030109;28;19920;-83
2022/09/15 11:12:15;;;;;;;;;;;;;;;45.25;11.31;100098.66;5049682;28;20074;-84
2022/09/15 11:14:49;;;;;;;;;;;;;;;44.95;11.35;100099.13;5018747;28;19913;-83
2022/09/15 11:17:34;;;;;;;;;;;;;;;44.41;12.42;100095.56;5026492;28;19913;-82
2022/09/15 11:20:06;;;;;;;;;;;;;;;43.59;12.76;100091.31;5051363;28;19916;-83
2022/09/15 11:22:34;;;;;;;;;;;;;;;43.23;13.12;100096.06;5060681;28;19917;-81
2022/09/15 11:25:04;;;;;;;;;;;;;;;42.78;13.06;100098.19;5038385;28;19955;-83
2022/09/15 11:27:34;;;;;;;;;;;;;;;42.04;13.63;100085.88;5026436;28;19917;-83
2022/09/15 11:30:05;;;;;;;;;;;;;;;41.88;13.82;100077.59;5013017;28;20023;-82
2022/09/15 11:32:45;;;;;;;;;;;;;;;41.84;13.82;100073.94;5023944;28;19920;-82
2022/09/15 11:35:16;;;;;;;;;;;;;;;41.76;13.91;100086.38;5048591;28;20384;-82
2022/09/15 11:37:45;;;;;;;;;;;;;;;42.34;13.82;100082.09;5047907;28;19942;-84
2022/09/15 11:40:41;;;;;;;;;;;;;;;42.09;13.90;100082.69;5028474;28;19913;-80
2022/09/15 11:43:10;;;;;;;;;;;;;;;41.35;13.92;100072.16;5026439;28;19917;-81
2022/09/15 11:45:37;;;;;;;;;;;;;;;41.34;14.46;100074.16;5046165;28;19920;-80
2022/09/15 11:48:09;;;;;;;;;;;;;;;41.59;13.97;100078.53;5026438;28;19916;-82
2022/09/15 11:50:36;;;;;;;;;;;;;;;40.98;14.16;100070.06;5016826;28;19913;-82
2022/09/15 11:53:12;;;;;;;;;;;;;;;40.76;14.63;100073.75;5013411;28;19917;-81
2022/09/15 11:55:57;;;;;;;;;;;;;;;40.68;14.99;100064.38;5023578;28;20601;-82
2022/09/15 11:58:28;;;;;;;;;;;;;;;41.04;14.59;100064.91;5045468;28;20025;-82
2022/09/15 12:01:21;;;;;;;;;;;;;;;40.78;14.66;100063.72;5031833;28;20373;-82
2022/09/15 12:03:52;;;;;;;;;;;;;;;40.54;15.17;100061.34;5017856;28;19999;-83
2022/09/15 12:06:27;;;;;;;;;;;;;;;40.87;14.52;100061.44;5026085;28;19920;-85
2022/09/15 12:08:55;;;;;;;;;;;;;;;40.29;14.88;100065.38;5025281;28;19917;-85
2022/09/15 12:11:21;;;;;;;;;;;;;;;40.25;14.79;100064.53;5006478;28;19924;-82
2022/09/15 12:13:48;;;;;;;;;;;;;;;40.20;15.11;100058.34;5032273;28;19916;-82
2022/09/15 12:16:13;;;;;;;;;;;;;;;40.43;14.92;100063.97;5032382;28;19919;-81
2022/09/15 12:18:41;;;;;;;;;;;;;;;40.04;15.32;100053.69;5028275;28;19924;-81
2022/09/15 12:21:22;;;;;;;;;;;;;;;39.68;15.51;100052.19;5034601;28;20294;-83
2022/09/15 12:24:06;;;;;;;;;;;;;;;39.44;15.86;100059.75;5049946;28;19921;-83
2022/09/15 12:26:32;;;;;;;;;;;;;;;39.32;16.00;100056.28;5021645;28;19921;-82
2022/09/15 12:29:05;;;;;;;;;;;;;;;39.03;15.93;100064.06;5032585;28;20313;-82
2022/09/15 12:31:38;;;;;;;;;;;;;;;38.96;16.41;100052.69;5025348;28;20013;-83
2022/09/15 12:34:22;;;;;;;;;;;;;;;38.97;16.35;100045.91;5025490;28;19924;-83
2022/09/15 12:36:49;;;;;;;;;;;;;;;39.07;16.50;100036.06;5048464;28;20003;-85
2022/09/15 12:39:20;;;;;;;;;;;;;;;38.66;16.26;100047.59;5014577;28;20312;-83
2022/09/15 12:41:53;;;;;;;;;;;;;;;38.33;16.45;100040.38;5017986;28;19970;-83
2022/09/15 12:44:41;;;;;;;;;;;;;;;38.39;16.55;100047.31;5047303;28;20012;-83
2022/09/15 12:47:33;;;;;;;;;;;;;;;38.14;17.23;100048.69;5046478;28;20011;-82
2022/09/15 12:50:04;;;;;;;;;;;;;;;37.89;17.18;100036.81;5049198;28;19921;-82
2022/09/15 12:52:30;;;;;;;;;;;;;;;37.96;17.14;100054.66;5048454;28;19920;-83